AFL2608 UUEE-URKK
Flight info
| Callsign | AFL2608 |
|---|---|
| Flight time | N/A |
| Altitude | 35000 |
| Route | TOGMO3J TOGMO M56 ABAGI B105 WGD G481 LARIN G487 BINOL B549 AG B950 SIBAN SIBAN6R |
| Aircraft | B738/M-SDE2E3FGHIRWXY/LB1 |
Departure
| Time | N/A |
|---|---|
| Airport | Sheremetyevo International Airport (UUEE) |
Arrival
| Time | 2026-05-07 15:42 |
|---|---|
| Airport | Krasnodar Pashkovsky International Airport (URKK) |
| Time | Latitude | Longitude | Altitude | Speed | Heading |
|---|---|---|---|---|---|
| 2026-05-07 13:38 | 52.57669 | 40.80308 | 34965 ft | 464 kts | 148° |
| 2026-05-07 13:39 | 52.54948 | 40.83103 | 34966 ft | 464 kts | 148° |
| 2026-05-07 13:39 | 52.49505 | 40.88677 | 34962 ft | 463 kts | 148° |
| 2026-05-07 13:40 | 52.44065 | 40.94232 | 34970 ft | 461 kts | 148° |
| 2026-05-07 13:40 | 52.38615 | 40.99781 | 34968 ft | 462 kts | 148° |
| 2026-05-07 13:41 | 52.33178 | 41.05305 | 34972 ft | 461 kts | 148° |
| 2026-05-07 13:41 | 52.27729 | 41.10828 | 34977 ft | 461 kts | 148° |
| 2026-05-07 13:42 | 52.22263 | 41.16351 | 34973 ft | 461 kts | 148° |
| 2026-05-07 13:42 | 52.16797 | 41.21852 | 34973 ft | 461 kts | 148° |
| 2026-05-07 13:43 | 52.11341 | 41.27326 | 34966 ft | 460 kts | 148° |
| 2026-05-07 13:43 | 52.05884 | 41.32785 | 34971 ft | 461 kts | 148° |
| 2026-05-07 13:44 | 52.00432 | 41.38224 | 34969 ft | 460 kts | 148° |
| 2026-05-07 13:44 | 51.95010 | 41.43617 | 34974 ft | 460 kts | 148° |
| 2026-05-07 13:45 | 51.89544 | 41.49039 | 34972 ft | 460 kts | 148° |
| 2026-05-07 13:45 | 51.84110 | 41.54413 | 34970 ft | 459 kts | 148° |
| 2026-05-07 13:46 | 51.78680 | 41.59768 | 34967 ft | 460 kts | 148° |
| 2026-05-07 13:46 | 51.73226 | 41.65128 | 34965 ft | 459 kts | 148° |
| 2026-05-07 13:47 | 51.67791 | 41.70455 | 34963 ft | 459 kts | 148° |
| 2026-05-07 13:47 | 51.62338 | 41.75787 | 34964 ft | 459 kts | 148° |
| 2026-05-07 13:48 | 51.56922 | 41.81067 | 34962 ft | 459 kts | 148° |
| 2026-05-07 13:48 | 51.51452 | 41.86384 | 34961 ft | 459 kts | 148° |
| 2026-05-07 13:49 | 51.46009 | 41.91660 | 34958 ft | 458 kts | 148° |
| 2026-05-07 13:49 | 51.40589 | 41.96899 | 34961 ft | 458 kts | 148° |
| 2026-05-07 13:50 | 51.35099 | 42.02189 | 34959 ft | 458 kts | 148° |
| 2026-05-07 13:50 | 51.29663 | 42.07412 | 34956 ft | 457 kts | 148° |
| 2026-05-07 13:51 | 51.24239 | 42.12611 | 34955 ft | 458 kts | 148° |
| 2026-05-07 13:51 | 51.18755 | 42.17851 | 34955 ft | 457 kts | 148° |
| 2026-05-07 13:52 | 51.13306 | 42.23042 | 34953 ft | 458 kts | 148° |
| 2026-05-07 13:52 | 51.07866 | 42.28209 | 34950 ft | 457 kts | 148° |
| 2026-05-07 13:53 | 51.02415 | 42.33374 | 34949 ft | 457 kts | 148° |
| 2026-05-07 13:53 | 50.96955 | 42.38540 | 34953 ft | 456 kts | 148° |
| 2026-05-07 13:54 | 50.91521 | 42.43656 | 34955 ft | 456 kts | 148° |
| 2026-05-07 13:54 | 50.86042 | 42.48799 | 34957 ft | 456 kts | 148° |
| 2026-05-07 13:55 | 50.80601 | 42.53901 | 34954 ft | 455 kts | 148° |
| 2026-05-07 13:55 | 50.75133 | 42.59012 | 34953 ft | 456 kts | 148° |
| 2026-05-07 13:56 | 50.69678 | 42.64097 | 34950 ft | 456 kts | 148° |
| 2026-05-07 13:56 | 50.64201 | 42.69190 | 34947 ft | 455 kts | 149° |
| 2026-05-07 13:57 | 50.58780 | 42.74216 | 34945 ft | 454 kts | 149° |
| 2026-05-07 13:57 | 50.53343 | 42.79237 | 34946 ft | 454 kts | 149° |
| 2026-05-07 13:58 | 50.47910 | 42.84246 | 34942 ft | 454 kts | 149° |
| 2026-05-07 13:58 | 50.42465 | 42.89257 | 34941 ft | 452 kts | 148° |
| 2026-05-07 13:59 | 50.37051 | 42.94224 | 34940 ft | 452 kts | 148° |
| 2026-05-07 13:59 | 50.31621 | 42.99189 | 34943 ft | 451 kts | 148° |
| 2026-05-07 14:00 | 50.26224 | 43.04107 | 34952 ft | 452 kts | 149° |
| 2026-05-07 14:00 | 50.20792 | 43.09051 | 34956 ft | 450 kts | 148° |
| 2026-05-07 14:01 | 50.15407 | 43.13939 | 34956 ft | 451 kts | 148° |
| 2026-05-07 14:01 | 50.10008 | 43.18827 | 34949 ft | 450 kts | 148° |
| 2026-05-07 14:02 | 50.04586 | 43.23716 | 34940 ft | 450 kts | 149° |
| 2026-05-07 14:02 | 49.99163 | 43.28595 | 34938 ft | 451 kts | 149° |
| 2026-05-07 14:03 | 49.93754 | 43.33443 | 34941 ft | 450 kts | 148° |
| 2026-05-07 14:03 | 49.88360 | 43.38274 | 34942 ft | 449 kts | 148° |
| 2026-05-07 14:04 | 49.82962 | 43.43095 | 34939 ft | 451 kts | 148° |
| 2026-05-07 14:04 | 49.77548 | 43.47920 | 34945 ft | 451 kts | 148° |
| 2026-05-07 14:05 | 49.72109 | 43.52745 | 34947 ft | 451 kts | 148° |
| 2026-05-07 14:05 | 49.66650 | 43.57585 | 34946 ft | 454 kts | 148° |
| 2026-05-07 14:06 | 49.61194 | 43.62407 | 34942 ft | 452 kts | 148° |
| 2026-05-07 14:06 | 49.55748 | 43.67203 | 34947 ft | 454 kts | 149° |
| 2026-05-07 14:07 | 49.50282 | 43.72002 | 34956 ft | 456 kts | 149° |
| 2026-05-07 14:07 | 49.44780 | 43.76836 | 34955 ft | 457 kts | 148° |
| 2026-05-07 14:08 | 49.39222 | 43.81703 | 34952 ft | 462 kts | 149° |
| 2026-05-07 14:08 | 49.33580 | 43.86618 | 34953 ft | 463 kts | 149° |
| 2026-05-07 14:09 | 49.27976 | 43.91494 | 34961 ft | 464 kts | 148° |
| 2026-05-07 14:09 | 49.22376 | 43.96357 | 34967 ft | 467 kts | 149° |
| 2026-05-07 14:10 | 49.16706 | 44.01267 | 34968 ft | 471 kts | 149° |
| 2026-05-07 14:10 | 49.10960 | 44.06242 | 34954 ft | 473 kts | 149° |
| 2026-05-07 14:11 | 49.05219 | 44.11182 | 34966 ft | 475 kts | 149° |
| 2026-05-07 14:11 | 48.99417 | 44.16148 | 34967 ft | 477 kts | 150° |
| 2026-05-07 14:12 | 48.93684 | 44.21049 | 34965 ft | 476 kts | 149° |
| 2026-05-07 14:12 | 48.87926 | 44.25968 | 34974 ft | 475 kts | 149° |
| 2026-05-07 14:13 | 48.82101 | 44.30594 | 34957 ft | 475 kts | 156° |
| 2026-05-07 14:13 | 48.78956 | 44.32116 | 34963 ft | 477 kts | 168° |
| 2026-05-07 14:13 | 48.75645 | 44.32648 | 34972 ft | 476 kts | 180° |
| 2026-05-07 14:14 | 48.69058 | 44.31395 | 34982 ft | 476 kts | 191° |
| 2026-05-07 14:14 | 48.62591 | 44.29273 | 34973 ft | 474 kts | 193° |
| 2026-05-07 14:15 | 48.56141 | 44.27000 | 34976 ft | 474 kts | 193° |
| 2026-05-07 14:15 | 48.49720 | 44.24755 | 34960 ft | 475 kts | 193° |
| 2026-05-07 14:16 | 48.43308 | 44.22553 | 34974 ft | 472 kts | 192° |
| 2026-05-07 14:16 | 48.36910 | 44.20359 | 34968 ft | 475 kts | 192° |
| 2026-05-07 14:17 | 48.30467 | 44.18156 | 34967 ft | 471 kts | 192° |
| 2026-05-07 14:17 | 48.24066 | 44.15998 | 34964 ft | 469 kts | 192° |
| 2026-05-07 14:18 | 48.17742 | 44.13869 | 34973 ft | 469 kts | 192° |
| 2026-05-07 14:18 | 48.11407 | 44.11745 | 34972 ft | 466 kts | 191° |
| 2026-05-07 14:19 | 48.05125 | 44.09666 | 34970 ft | 464 kts | 191° |
| 2026-05-07 14:19 | 47.98815 | 44.07556 | 34972 ft | 466 kts | 192° |
| 2026-05-07 14:20 | 47.92523 | 44.05493 | 34967 ft | 465 kts | 191° |
| 2026-05-07 14:20 | 47.86203 | 44.03409 | 34966 ft | 466 kts | 191° |
| 2026-05-07 14:21 | 47.79813 | 44.01301 | 34972 ft | 469 kts | 191° |
| 2026-05-07 14:21 | 47.73435 | 43.99192 | 34972 ft | 468 kts | 191° |
| 2026-05-07 14:22 | 47.67049 | 43.97090 | 34969 ft | 473 kts | 190° |
| 2026-05-07 14:22 | 47.60600 | 43.94980 | 34969 ft | 476 kts | 190° |
| 2026-05-07 14:23 | 47.54161 | 43.92862 | 34968 ft | 478 kts | 191° |
| 2026-05-07 14:23 | 47.47666 | 43.90729 | 34968 ft | 478 kts | 191° |
| 2026-05-07 14:24 | 47.41086 | 43.88586 | 34972 ft | 482 kts | 191° |
| 2026-05-07 14:24 | 47.34600 | 43.86473 | 34966 ft | 483 kts | 190° |
| 2026-05-07 14:25 | 47.28007 | 43.84341 | 34977 ft | 485 kts | 191° |
| 2026-05-07 14:25 | 47.21418 | 43.82206 | 34970 ft | 489 kts | 190° |
| 2026-05-07 14:26 | 47.14752 | 43.80066 | 34966 ft | 494 kts | 190° |
| 2026-05-07 14:26 | 47.08064 | 43.77924 | 34973 ft | 489 kts | 190° |
| 2026-05-07 14:27 | 47.01449 | 43.75796 | 34977 ft | 495 kts | 191° |
| 2026-05-07 14:27 | 46.94708 | 43.73651 | 34977 ft | 494 kts | 191° |
| 2026-05-07 14:28 | 46.87979 | 43.71505 | 34973 ft | 494 kts | 190° |
| 2026-05-07 14:28 | 46.81291 | 43.69372 | 34975 ft | 493 kts | 190° |
| 2026-05-07 14:29 | 46.74621 | 43.67257 | 34994 ft | 491 kts | 190° |
| 2026-05-07 14:29 | 46.67939 | 43.65147 | 34992 ft | 489 kts | 190° |
| 2026-05-07 14:30 | 46.61272 | 43.63055 | 34994 ft | 492 kts | 190° |
| 2026-05-07 14:30 | 46.54649 | 43.60966 | 35005 ft | 487 kts | 190° |
| 2026-05-07 14:31 | 46.47986 | 43.58866 | 35001 ft | 489 kts | 189° |
| 2026-05-07 14:31 | 46.41358 | 43.56779 | 35019 ft | 487 kts | 189° |
| 2026-05-07 14:32 | 46.34742 | 43.54709 | 35022 ft | 487 kts | 190° |
| 2026-05-07 14:32 | 46.28476 | 43.51191 | 35021 ft | 493 kts | 214° |
| 2026-05-07 14:33 | 46.23287 | 43.44658 | 35094 ft | 498 kts | 224° |
| 2026-05-07 14:33 | 46.20853 | 43.41131 | 35494 ft | 492 kts | 225° |
| 2026-05-07 14:33 | 46.18460 | 43.37605 | 35825 ft | 487 kts | 225° |
| 2026-05-07 14:33 | 46.16093 | 43.34126 | 35937 ft | 486 kts | 224° |
| 2026-05-07 14:34 | 46.13741 | 43.30705 | 35996 ft | 483 kts | 224° |
| 2026-05-07 14:34 | 46.08988 | 43.23924 | 36033 ft | 480 kts | 223° |
| 2026-05-07 14:35 | 46.04165 | 43.17186 | 35805 ft | 485 kts | 222° |
| 2026-05-07 14:35 | 46.01754 | 43.13845 | 35668 ft | 485 kts | 222° |
| 2026-05-07 14:35 | 45.99295 | 43.10450 | 35517 ft | 486 kts | 222° |
| 2026-05-07 14:35 | 45.96851 | 43.07084 | 35333 ft | 488 kts | 222° |
| 2026-05-07 14:36 | 45.94411 | 43.03727 | 35134 ft | 489 kts | 221° |
| 2026-05-07 14:36 | 45.89517 | 42.97012 | 35064 ft | 490 kts | 221° |
| 2026-05-07 14:37 | 45.84597 | 42.90281 | 35046 ft | 492 kts | 221° |
| 2026-05-07 14:37 | 45.77179 | 42.80160 | 35042 ft | 492 kts | 222° |
| 2026-05-07 14:38 | 45.72215 | 42.73415 | 35063 ft | 491 kts | 222° |
| 2026-05-07 14:38 | 45.67297 | 42.66750 | 35057 ft | 491 kts | 222° |
| 2026-05-07 14:39 | 45.62347 | 42.60042 | 35058 ft | 491 kts | 222° |
| 2026-05-07 14:39 | 45.57387 | 42.53350 | 35061 ft | 491 kts | 222° |
| 2026-05-07 14:40 | 45.52444 | 42.46702 | 35041 ft | 490 kts | 222° |
| 2026-05-07 14:40 | 45.47474 | 42.40030 | 35084 ft | 490 kts | 222° |
| 2026-05-07 14:41 | 45.42546 | 42.33440 | 35086 ft | 490 kts | 221° |
| 2026-05-07 14:41 | 45.37595 | 42.26832 | 35057 ft | 489 kts | 221° |
| 2026-05-07 14:42 | 45.32618 | 42.20201 | 35077 ft | 489 kts | 221° |
| 2026-05-07 14:42 | 45.27668 | 42.13628 | 35080 ft | 489 kts | 221° |
| 2026-05-07 14:43 | 45.22695 | 42.07044 | 35112 ft | 489 kts | 221° |
| 2026-05-07 14:43 | 45.20219 | 42.03770 | 35225 ft | 489 kts | 221° |
| 2026-05-07 14:43 | 45.17727 | 42.00481 | 35156 ft | 489 kts | 221° |
| 2026-05-07 14:44 | 45.12764 | 41.93938 | 34995 ft | 489 kts | 221° |
| 2026-05-07 14:44 | 45.10302 | 41.90698 | 35204 ft | 489 kts | 221° |
| 2026-05-07 14:44 | 45.07809 | 41.87423 | 35131 ft | 488 kts | 221° |
| 2026-05-07 14:45 | 45.02850 | 41.80912 | 35107 ft | 485 kts | 222° |
| 2026-05-07 14:45 | 44.97910 | 41.74445 | 35105 ft | 487 kts | 221° |
| 2026-05-07 14:46 | 44.92963 | 41.67989 | 35122 ft | 486 kts | 222° |
| 2026-05-07 14:46 | 44.88009 | 41.61534 | 35117 ft | 487 kts | 222° |
| 2026-05-07 14:47 | 44.83030 | 41.55064 | 35130 ft | 485 kts | 222° |
| 2026-05-07 14:47 | 44.78071 | 41.48641 | 35127 ft | 484 kts | 222° |
| 2026-05-07 14:48 | 44.73125 | 41.42250 | 35132 ft | 484 kts | 222° |
| 2026-05-07 14:48 | 44.68172 | 41.35862 | 35145 ft | 484 kts | 222° |
| 2026-05-07 14:49 | 44.63209 | 41.29474 | 35146 ft | 484 kts | 221° |
| 2026-05-07 14:49 | 44.58244 | 41.23100 | 35139 ft | 484 kts | 221° |
| 2026-05-07 14:50 | 44.53270 | 41.16730 | 35140 ft | 484 kts | 221° |
| 2026-05-07 14:50 | 44.48336 | 41.10430 | 35141 ft | 483 kts | 221° |
| 2026-05-07 14:51 | 44.43371 | 41.04116 | 35147 ft | 483 kts | 221° |
| 2026-05-07 14:51 | 44.38400 | 40.97800 | 35145 ft | 483 kts | 221° |
| 2026-05-07 14:52 | 44.33435 | 40.91505 | 35154 ft | 483 kts | 222° |
| 2026-05-07 14:52 | 44.28441 | 40.85185 | 35156 ft | 484 kts | 222° |
| 2026-05-07 14:53 | 44.23495 | 40.78943 | 35145 ft | 483 kts | 222° |
| 2026-05-07 14:53 | 44.18520 | 40.72677 | 35153 ft | 483 kts | 222° |
| 2026-05-07 14:54 | 44.13526 | 40.66404 | 35171 ft | 483 kts | 222° |
| 2026-05-07 14:54 | 44.08553 | 40.60173 | 35143 ft | 481 kts | 222° |
| 2026-05-07 14:55 | 43.98885 | 40.48105 | 35141 ft | 482 kts | 222° |
| 2026-05-07 14:56 | 43.93906 | 40.41912 | 35143 ft | 481 kts | 222° |
| 2026-05-07 14:56 | 43.88915 | 40.35719 | 35143 ft | 481 kts | 222° |
| 2026-05-07 14:57 | 43.83938 | 40.29557 | 35139 ft | 479 kts | 221° |
| 2026-05-07 14:57 | 43.78977 | 40.23421 | 35132 ft | 480 kts | 222° |
| 2026-05-07 14:58 | 43.74704 | 40.16431 | 35136 ft | 477 kts | 240° |
| 2026-05-07 14:58 | 43.73294 | 40.12293 | 35153 ft | 477 kts | 251° |
| 2026-05-07 14:58 | 43.72357 | 40.07944 | 35162 ft | 476 kts | 258° |
| 2026-05-07 14:59 | 43.71888 | 39.98935 | 35171 ft | 471 kts | 279° |
| 2026-05-07 14:59 | 43.72531 | 39.94514 | 35001 ft | 470 kts | 289° |
| 2026-05-07 14:59 | 43.73581 | 39.90274 | 34795 ft | 467 kts | 294° |
| 2026-05-07 15:00 | 43.74797 | 39.86138 | 34599 ft | 464 kts | 297° |
| 2026-05-07 15:00 | 43.76339 | 39.82239 | 34394 ft | 461 kts | 308° |
| 2026-05-07 15:00 | 43.78291 | 39.78772 | 34212 ft | 460 kts | 311° |
| 2026-05-07 15:00 | 43.80154 | 39.75153 | 34033 ft | 464 kts | 305° |
| 2026-05-07 15:01 | 43.81741 | 39.71247 | 33830 ft | 467 kts | 300° |
| 2026-05-07 15:01 | 43.83078 | 39.67228 | 33629 ft | 459 kts | 296° |
| 2026-05-07 15:01 | 43.84232 | 39.63177 | 33403 ft | 451 kts | 294° |
| 2026-05-07 15:01 | 43.85266 | 39.59145 | 33167 ft | 442 kts | 292° |
| 2026-05-07 15:02 | 43.86224 | 39.55152 | 32843 ft | 437 kts | 291° |
| 2026-05-07 15:02 | 43.87154 | 39.51128 | 32150 ft | 442 kts | 291° |
| 2026-05-07 15:02 | 43.88082 | 39.47043 | 31272 ft | 450 kts | 291° |
| 2026-05-07 15:02 | 43.89008 | 39.42923 | 30331 ft | 457 kts | 291° |
| 2026-05-07 15:03 | 43.89952 | 39.38691 | 29303 ft | 464 kts | 290° |
| 2026-05-07 15:03 | 43.90907 | 39.34395 | 28276 ft | 469 kts | 289° |
| 2026-05-07 15:03 | 43.92052 | 39.30193 | 27468 ft | 464 kts | 300° |
| 2026-05-07 15:03 | 43.93843 | 39.26657 | 27327 ft | 441 kts | 316° |
| 2026-05-07 15:04 | 43.94455 | 39.25829 | 27295 ft | 434 kts | 321° |
| 2026-05-07 15:06 | 43.95984 | 39.24242 | 27136 ft | 422 kts | 332° |
| 2026-05-07 15:06 | 43.98574 | 39.22619 | 26867 ft | 405 kts | 346° |
| 2026-05-07 15:06 | 44.01272 | 39.21742 | 26595 ft | 392 kts | 353° |
| 2026-05-07 15:06 | 44.03948 | 39.21417 | 26322 ft | 378 kts | 5° |
| 2026-05-07 15:07 | 44.06479 | 39.22009 | 26054 ft | 365 kts | 20° |
| 2026-05-07 15:07 | 44.08730 | 39.23378 | 25790 ft | 353 kts | 31° |
| 2026-05-07 15:07 | 44.10782 | 39.25227 | 25519 ft | 344 kts | 38° |
| 2026-05-07 15:07 | 44.12557 | 39.27368 | 25250 ft | 335 kts | 48° |
| 2026-05-07 15:08 | 44.13889 | 39.29939 | 24983 ft | 327 kts | 61° |
| 2026-05-07 15:08 | 44.14803 | 39.32767 | 24715 ft | 320 kts | 69° |
| 2026-05-07 15:08 | 44.15449 | 39.35709 | 24441 ft | 313 kts | 76° |
| 2026-05-07 15:08 | 44.15722 | 39.38651 | 24155 ft | 309 kts | 87° |
| 2026-05-07 15:09 | 44.15545 | 39.41610 | 23767 ft | 309 kts | 98° |
| 2026-05-07 15:09 | 44.15038 | 39.44492 | 23372 ft | 308 kts | 103° |
| 2026-05-07 15:09 | 44.14400 | 39.47339 | 22975 ft | 306 kts | 105° |
| 2026-05-07 15:09 | 44.13749 | 39.50138 | 22575 ft | 304 kts | 104° |
| 2026-05-07 15:10 | 44.13105 | 39.52904 | 22180 ft | 302 kts | 104° |
| 2026-05-07 15:10 | 44.12464 | 39.55690 | 21777 ft | 301 kts | 105° |
| 2026-05-07 15:10 | 44.11830 | 39.58461 | 21260 ft | 304 kts | 104° |
| 2026-05-07 15:10 | 44.11192 | 39.61247 | 20735 ft | 306 kts | 105° |
| 2026-05-07 15:11 | 44.10419 | 39.64017 | 20222 ft | 309 kts | 113° |
| 2026-05-07 15:11 | 44.09283 | 39.66562 | 19704 ft | 314 kts | 127° |
| 2026-05-07 15:11 | 44.07755 | 39.68745 | 19188 ft | 319 kts | 138° |
| 2026-05-07 15:11 | 44.05857 | 39.70330 | 18656 ft | 324 kts | 161° |
| 2026-05-07 15:12 | 44.03617 | 39.70654 | 18173 ft | 328 kts | 184° |
| 2026-05-07 15:12 | 44.01376 | 39.70162 | 17671 ft | 329 kts | 191° |
| 2026-05-07 15:12 | 43.99145 | 39.69456 | 17165 ft | 330 kts | 193° |
| 2026-05-07 15:12 | 43.96925 | 39.68647 | 16663 ft | 331 kts | 194° |
| 2026-05-07 15:13 | 43.94722 | 39.67739 | 16162 ft | 333 kts | 200° |
| 2026-05-07 15:13 | 43.92696 | 39.66255 | 15646 ft | 333 kts | 217° |
| 2026-05-07 15:13 | 43.91555 | 39.64902 | 15317 ft | 333 kts | 226° |
| 2026-05-07 15:17 | 43.90208 | 39.62688 | 14840 ft | 334 kts | 236° |
| 2026-05-07 15:17 | 43.88988 | 39.59946 | 14304 ft | 334 kts | 243° |
| 2026-05-07 15:17 | 43.88045 | 39.57049 | 13809 ft | 334 kts | 253° |
| 2026-05-07 15:17 | 43.87562 | 39.53914 | 13256 ft | 332 kts | 266° |
| 2026-05-07 15:18 | 43.87565 | 39.50747 | 12774 ft | 331 kts | 277° |
| 2026-05-07 15:18 | 43.87878 | 39.47625 | 12228 ft | 329 kts | 284° |
| 2026-05-07 15:18 | 43.88470 | 39.44573 | 11697 ft | 328 kts | 289° |
| 2026-05-07 15:18 | 43.89177 | 39.41570 | 11210 ft | 328 kts | 290° |
| 2026-05-07 15:19 | 43.89899 | 39.38584 | 10693 ft | 328 kts | 290° |
| 2026-05-07 15:19 | 43.90599 | 39.35637 | 10363 ft | 321 kts | 290° |
| 2026-05-07 15:19 | 43.91460 | 39.32853 | 10151 ft | 306 kts | 306° |
| 2026-05-07 15:19 | 43.92808 | 39.30763 | 10194 ft | 277 kts | 320° |
| 2026-05-07 15:20 | 43.94689 | 39.28551 | 10156 ft | 255 kts | 322° |
| 2026-05-07 15:20 | 43.95556 | 39.27520 | 10154 ft | 245 kts | 321° |
| 2026-05-07 15:20 | 43.96802 | 39.25951 | 10176 ft | 240 kts | 319° |
| 2026-05-07 15:20 | 43.98026 | 39.24333 | 10134 ft | 243 kts | 319° |
| 2026-05-07 15:21 | 43.99228 | 39.22710 | 9895 ft | 242 kts | 318° |
| 2026-05-07 15:21 | 44.00418 | 39.21091 | 9647 ft | 239 kts | 318° |
| 2026-05-07 15:21 | 44.01618 | 39.19459 | 9289 ft | 242 kts | 318° |
| 2026-05-07 15:21 | 44.02839 | 39.17803 | 8797 ft | 249 kts | 318° |
| 2026-05-07 15:22 | 44.04087 | 39.16109 | 8301 ft | 255 kts | 317° |
| 2026-05-07 15:22 | 44.05353 | 39.14389 | 7805 ft | 260 kts | 318° |
| 2026-05-07 15:22 | 44.06661 | 39.12609 | 7317 ft | 265 kts | 317° |
| 2026-05-07 15:22 | 44.07978 | 39.10816 | 6829 ft | 269 kts | 318° |
| 2026-05-07 15:23 | 44.09330 | 39.08972 | 6323 ft | 272 kts | 317° |
| 2026-05-07 15:23 | 44.10677 | 39.07136 | 5820 ft | 275 kts | 317° |
| 2026-05-07 15:23 | 44.12038 | 39.05277 | 5517 ft | 269 kts | 317° |
| 2026-05-07 15:23 | 44.13316 | 39.03573 | 5551 ft | 249 kts | 321° |
| 2026-05-07 15:24 | 44.14722 | 39.02307 | 5290 ft | 235 kts | 341° |
| 2026-05-07 15:24 | 44.16250 | 39.01766 | 5161 ft | 220 kts | 351° |
| 2026-05-07 15:24 | 44.17755 | 39.01396 | 5200 ft | 219 kts | 350° |
| 2026-05-07 15:24 | 44.19249 | 39.00977 | 5168 ft | 216 kts | 349° |
| 2026-05-07 15:25 | 44.20723 | 39.00519 | 5056 ft | 218 kts | 348° |
| 2026-05-07 15:25 | 44.22192 | 39.00049 | 5023 ft | 215 kts | 348° |
| 2026-05-07 15:25 | 44.23646 | 38.99584 | 5019 ft | 218 kts | 348° |
| 2026-05-07 15:25 | 44.25129 | 38.99112 | 5008 ft | 216 kts | 348° |
| 2026-05-07 15:26 | 44.26590 | 38.98645 | 5009 ft | 216 kts | 348° |
| 2026-05-07 15:26 | 44.28068 | 38.98173 | 5007 ft | 217 kts | 348° |
| 2026-05-07 15:26 | 44.29069 | 38.97853 | 5007 ft | 217 kts | 348° |
| 2026-05-07 15:26 | 44.30516 | 38.97391 | 5009 ft | 216 kts | 348° |
| 2026-05-07 15:27 | 44.31988 | 38.96921 | 5015 ft | 218 kts | 348° |
| 2026-05-07 15:27 | 44.33448 | 38.96449 | 5013 ft | 218 kts | 347° |
| 2026-05-07 15:27 | 44.34919 | 38.95925 | 5013 ft | 217 kts | 346° |
| 2026-05-07 15:27 | 44.36394 | 38.95372 | 5012 ft | 217 kts | 346° |
| 2026-05-07 15:28 | 44.37842 | 38.94830 | 5013 ft | 217 kts | 346° |
| 2026-05-07 15:28 | 44.39314 | 38.94284 | 5011 ft | 217 kts | 346° |
| 2026-05-07 15:28 | 44.40776 | 38.93745 | 5009 ft | 217 kts | 346° |
| 2026-05-07 15:28 | 44.42226 | 38.93208 | 5010 ft | 217 kts | 345° |
| 2026-05-07 15:29 | 44.43684 | 38.92666 | 5010 ft | 218 kts | 345° |
| 2026-05-07 15:29 | 44.45151 | 38.92123 | 5011 ft | 218 kts | 346° |
| 2026-05-07 15:29 | 44.46613 | 38.91583 | 5012 ft | 218 kts | 346° |
| 2026-05-07 15:29 | 44.48085 | 38.91038 | 5009 ft | 218 kts | 346° |
| 2026-05-07 15:30 | 44.49565 | 38.90489 | 5005 ft | 218 kts | 346° |
| 2026-05-07 15:30 | 44.51007 | 38.89955 | 5006 ft | 217 kts | 346° |
| 2026-05-07 15:30 | 44.52471 | 38.89413 | 5007 ft | 217 kts | 346° |
| 2026-05-07 15:30 | 44.53933 | 38.88872 | 5003 ft | 217 kts | 346° |
| 2026-05-07 15:31 | 44.55386 | 38.88334 | 4998 ft | 217 kts | 345° |
| 2026-05-07 15:31 | 44.56849 | 38.87790 | 5012 ft | 225 kts | 345° |
| 2026-05-07 15:31 | 44.58497 | 38.87178 | 5016 ft | 260 kts | 346° |
| 2026-05-07 15:31 | 44.60342 | 38.86492 | 5001 ft | 293 kts | 345° |
| 2026-05-07 15:32 | 44.62430 | 38.85714 | 4995 ft | 323 kts | 345° |
| 2026-05-07 15:32 | 44.64669 | 38.84880 | 4998 ft | 345 kts | 345° |
| 2026-05-07 15:32 | 44.67031 | 38.83999 | 5000 ft | 350 kts | 345° |
| 2026-05-07 15:32 | 44.69374 | 38.83126 | 4996 ft | 350 kts | 345° |
| 2026-05-07 15:33 | 44.71712 | 38.82254 | 4998 ft | 350 kts | 345° |
| 2026-05-07 15:33 | 44.74097 | 38.81363 | 4995 ft | 352 kts | 345° |
| 2026-05-07 15:33 | 44.76477 | 38.80665 | 4993 ft | 353 kts | 353° |
| 2026-05-07 15:33 | 44.78886 | 38.80724 | 4993 ft | 339 kts | 11° |
| 2026-05-07 15:34 | 44.81057 | 38.81698 | 4970 ft | 314 kts | 22° |
| 2026-05-07 15:34 | 44.82920 | 38.82897 | 4981 ft | 283 kts | 25° |
| 2026-05-07 15:34 | 44.84509 | 38.84348 | 4985 ft | 258 kts | 43° |
| 2026-05-07 15:34 | 44.85615 | 38.86156 | 4984 ft | 235 kts | 51° |
| 2026-05-07 15:35 | 44.86557 | 38.87949 | 4856 ft | 221 kts | 52° |
| 2026-05-07 15:35 | 44.86843 | 38.88498 | 4775 ft | 219 kts | 52° |
| 2026-05-07 15:35 | 44.87548 | 38.89823 | 4549 ft | 215 kts | 50° |
| 2026-05-07 15:36 | 44.88449 | 38.91465 | 4286 ft | 208 kts | 50° |
| 2026-05-07 15:36 | 44.89323 | 38.93045 | 4012 ft | 201 kts | 50° |
| 2026-05-07 15:36 | 44.90151 | 38.94551 | 3736 ft | 193 kts | 50° |
| 2026-05-07 15:36 | 44.90957 | 38.96019 | 3495 ft | 184 kts | 50° |
| 2026-05-07 15:37 | 44.91714 | 38.97398 | 3349 ft | 167 kts | 50° |
| 2026-05-07 15:37 | 44.92409 | 38.98666 | 3047 ft | 163 kts | 49° |
| 2026-05-07 15:37 | 44.93079 | 38.99886 | 2860 ft | 153 kts | 49° |
| 2026-05-07 15:37 | 44.93735 | 39.01083 | 2682 ft | 155 kts | 49° |
| 2026-05-07 15:38 | 44.94387 | 39.02271 | 2484 ft | 151 kts | 48° |
| 2026-05-07 15:38 | 44.95035 | 39.03451 | 2319 ft | 153 kts | 49° |
| 2026-05-07 15:38 | 44.95678 | 39.04626 | 2087 ft | 151 kts | 48° |
| 2026-05-07 15:38 | 44.96317 | 39.05794 | 1928 ft | 151 kts | 48° |
| 2026-05-07 15:39 | 44.96960 | 39.06969 | 1732 ft | 150 kts | 48° |
| 2026-05-07 15:39 | 44.97604 | 39.08148 | 1564 ft | 151 kts | 48° |
| 2026-05-07 15:39 | 44.98241 | 39.09311 | 1357 ft | 150 kts | 49° |
| 2026-05-07 15:39 | 44.98872 | 39.10470 | 1192 ft | 150 kts | 49° |
| 2026-05-07 15:40 | 44.99504 | 39.11625 | 1008 ft | 151 kts | 49° |
| 2026-05-07 15:40 | 45.00145 | 39.12797 | 835 ft | 152 kts | 50° |
| 2026-05-07 15:40 | 45.00769 | 39.13946 | 647 ft | 146 kts | 49° |
| 2026-05-07 15:40 | 45.01406 | 39.15100 | 485 ft | 145 kts | 49° |
| 2026-05-07 15:41 | 45.02023 | 39.16219 | 331 ft | 146 kts | 50° |
| 2026-05-07 15:41 | 45.02634 | 39.17355 | 164 ft | 145 kts | 50° |
| 2026-05-07 15:41 | 45.03206 | 39.18395 | 112 ft | 115 kts | 53° |
| 2026-05-07 15:41 | 45.03606 | 39.19141 | 111 ft | 79 kts | 52° |
| 2026-05-07 15:42 | 45.03892 | 39.19671 | 111 ft | 61 kts | 52° |
| 2026-05-07 15:42 | 45.04125 | 39.20095 | 111 ft | 44 kts | 52° |
| 2026-05-07 15:42 | 45.04258 | 39.20280 | 111 ft | 19 kts | 351° |
| 2026-05-07 15:42 | 45.04335 | 39.20168 | 111 ft | 0 kts | 277° |
| 2026-05-07 15:59 | 45.04336 | 39.20157 | 111 ft | 3 kts | 275° |
| 2026-05-07 16:00 | 45.04329 | 39.20101 | 111 ft | 8 kts | 241° |
| 2026-05-07 16:00 | 45.04288 | 39.20020 | 111 ft | 12 kts | 233° |
| 2026-05-07 16:00 | 45.04226 | 39.19902 | 111 ft | 17 kts | 234° |
| 2026-05-07 16:00 | 45.04143 | 39.19752 | 111 ft | 21 kts | 231° |
| 2026-05-07 16:01 | 45.04042 | 39.19568 | 111 ft | 26 kts | 232° |
| 2026-05-07 16:01 | 45.03923 | 39.19346 | 111 ft | 30 kts | 230° |
| 2026-05-07 16:01 | 45.03789 | 39.19099 | 111 ft | 29 kts | 232° |
| 2026-05-07 16:01 | 45.03655 | 39.18850 | 111 ft | 34 kts | 232° |
| 2026-05-07 16:02 | 45.03581 | 39.18682 | 114 ft | 15 kts | 277° |
| 2026-05-07 16:02 | 45.03613 | 39.18545 | 114 ft | 16 kts | 240° |
| 2026-05-07 16:02 | 45.03545 | 39.18414 | 114 ft | 13 kts | 243° |
| 2026-05-07 16:02 | 45.03554 | 39.18354 | 114 ft | 6 kts | 322° |
| 2026-05-07 16:03 | 45.03575 | 39.18333 | 114 ft | 0 kts | 323° |